Time;durP1;ratioP1;P1;durP2;ratioP2;P2;SDS_P1;SDS_P2;PMS_P1;PMS_P2;Temp;Humidity;BMP_temperature;BMP_pressure;BME280_temperature;BME280_humidity;BME280_pressure;Samples;Min_cycle;Max_cycle;Signal;HPM_P1;HPM_P2
2023/07/14 00:01:16;;;;;;;;;;;;;;;22.23;38.91;101734.63;5055647;28;19920;-85
2023/07/14 00:03:41;;;;;;;;;;;;;;;22.18;38.74;101737.47;5056517;28;20392;-85
2023/07/14 00:06:08;;;;;;;;;;;;;;;22.13;39.36;101740.28;5055052;28;20498;-84
2023/07/14 00:08:33;;;;;;;;;;;;;;;22.06;39.29;101737.13;5062631;28;20014;-85
2023/07/14 00:10:59;;;;;;;;;;;;;;;22.03;39.47;101733.06;5059034;28;20015;-84
2023/07/14 00:13:24;;;;;;;;;;;;;;;21.99;39.13;101732.03;5055618;28;19928;-85
2023/07/14 00:15:50;;;;;;;;;;;;;;;21.95;39.46;101739.22;5059815;28;19917;-85
2023/07/14 00:18:15;;;;;;;;;;;;;;;21.94;39.38;101740.34;5058807;28;20035;-84
2023/07/14 00:20:41;;;;;;;;;;;;;;;21.89;39.46;101743.13;5059738;28;20007;-85
2023/07/14 00:23:15;;;;;;;;;;;;;;;21.84;39.87;101741.31;5054782;28;20728;-85
2023/07/14 00:25:41;;;;;;;;;;;;;;;21.74;39.84;101741.50;5058238;28;19917;-84
2023/07/14 00:28:18;;;;;;;;;;;;;;;21.70;39.78;101744.00;5056406;28;19927;-85
2023/07/14 00:30:44;;;;;;;;;;;;;;;21.68;39.95;101734.50;5059598;28;19931;-85
2023/07/14 00:33:14;;;;;;;;;;;;;;;21.68;39.72;101742.69;5054561;28;19917;-85
2023/07/14 00:35:40;;;;;;;;;;;;;;;21.69;39.70;101742.38;5055616;28;19927;-85
2023/07/14 00:38:05;;;;;;;;;;;;;;;21.67;39.81;101743.78;5055352;28;19921;-85
2023/07/14 00:40:38;;;;;;;;;;;;;;;21.64;40.03;101747.94;5055351;28;20003;-84
2023/07/14 00:43:05;;;;;;;;;;;;;;;21.62;39.82;101739.25;5054218;28;21253;-85
2023/07/14 00:45:31;;;;;;;;;;;;;;;21.60;39.93;101743.38;5057632;28;19970;-85
2023/07/14 00:48:04;;;;;;;;;;;;;;;21.58;39.91;101746.41;5056770;28;19971;-85
2023/07/14 00:50:32;;;;;;;;;;;;;;;21.57;40.09;101738.53;5056877;28;19921;-85
2023/07/14 00:53:00;;;;;;;;;;;;;;;21.54;40.21;101745.34;5057449;28;20005;-85
2023/07/14 00:55:32;;;;;;;;;;;;;;;21.52;40.24;101738.59;5056210;28;19916;-85
2023/07/14 00:57:58;;;;;;;;;;;;;;;21.47;40.21;101744.94;5052060;28;19928;-85
2023/07/14 01:00:32;;;;;;;;;;;;;;;21.47;40.48;101741.41;5060763;28;19917;-85
2023/07/14 01:02:58;;;;;;;;;;;;;;;21.46;40.39;101747.97;5057294;28;20015;-84
2023/07/14 01:05:24;;;;;;;;;;;;;;;21.45;40.47;101749.88;5057457;28;20507;-85
2023/07/14 01:07:49;;;;;;;;;;;;;;;21.43;40.64;101757.53;5058988;28;19965;-85
2023/07/14 01:10:21;;;;;;;;;;;;;;;21.42;40.46;101756.75;5053648;28;19929;-85
2023/07/14 01:12:48;;;;;;;;;;;;;;;21.40;40.71;101763.59;5057653;28;19923;-84
2023/07/14 01:15:15;;;;;;;;;;;;;;;21.34;41.00;101760.13;5056806;28;19926;-85
2023/07/14 01:17:41;;;;;;;;;;;;;;;21.32;40.71;101765.06;5059194;28;20030;-85
2023/07/14 01:20:09;;;;;;;;;;;;;;;21.30;40.74;101761.00;5051518;28;20444;-85
2023/07/14 01:22:39;;;;;;;;;;;;;;;21.26;40.81;101754.53;5052718;28;19920;-85
2023/07/14 01:25:08;;;;;;;;;;;;;;;21.24;40.93;101760.28;5052712;28;20396;-85
2023/07/14 01:27:33;;;;;;;;;;;;;;;21.18;41.02;101755.97;5052349;28;19920;-85
2023/07/14 01:29:59;;;;;;;;;;;;;;;21.13;40.92;101762.31;5052480;28;20297;-84
2023/07/14 01:32:31;;;;;;;;;;;;;;;21.11;40.84;101763.72;5049025;28;19928;-85
2023/07/14 01:34:56;;;;;;;;;;;;;;;21.09;40.93;101760.47;5051473;28;20390;-85
2023/07/14 01:37:22;;;;;;;;;;;;;;;21.06;40.85;101758.34;5053450;28;20007;-84
2023/07/14 01:39:48;;;;;;;;;;;;;;;21.02;40.86;101765.50;5051619;28;20340;-85
2023/07/14 01:42:13;;;;;;;;;;;;;;;20.99;40.92;101763.31;5054243;28;19956;-85
2023/07/14 01:44:39;;;;;;;;;;;;;;;20.97;40.96;101766.34;5058529;28;20325;-85
2023/07/14 01:47:07;;;;;;;;;;;;;;;20.94;41.26;101760.69;5055030;28;20011;-85
2023/07/14 01:49:45;;;;;;;;;;;;;;;20.90;41.04;101765.91;5055548;28;19920;-85
2023/07/14 01:52:16;;;;;;;;;;;;;;;20.86;41.10;101764.06;5055783;28;21452;-85
2023/07/14 01:54:48;;;;;;;;;;;;;;;20.83;41.38;101770.91;5059159;28;19921;-85
2023/07/14 01:57:15;;;;;;;;;;;;;;;20.81;41.05;101773.09;5056231;28;19958;-85
2023/07/14 01:59:46;;;;;;;;;;;;;;;20.79;41.32;101775.31;5054217;28;20216;-85
2023/07/14 02:02:15;;;;;;;;;;;;;;;20.76;41.16;101776.69;5056573;28;20405;-85
2023/07/14 02:04:41;;;;;;;;;;;;;;;20.73;41.26;101780.00;5059222;28;20436;-85
2023/07/14 02:07:10;;;;;;;;;;;;;;;20.70;41.36;101771.63;5056333;28;19959;-86
2023/07/14 02:09:35;;;;;;;;;;;;;;;20.67;41.15;101775.75;5058269;28;19925;-84
2023/07/14 02:12:03;;;;;;;;;;;;;;;20.63;41.60;101777.41;5055430;28;20301;-86
2023/07/14 02:14:34;;;;;;;;;;;;;;;20.58;41.28;101785.63;5055394;28;19917;-86
2023/07/14 02:17:02;;;;;;;;;;;;;;;20.56;41.51;101782.41;5062187;28;19970;-85
2023/07/14 02:19:28;;;;;;;;;;;;;;;20.56;41.34;101781.59;5052422;28;19917;-87
2023/07/14 02:21:54;;;;;;;;;;;;;;;20.53;41.68;101788.44;5059415;28;19950;-85
2023/07/14 02:24:25;;;;;;;;;;;;;;;20.51;41.44;101790.63;5056624;28;20388;-85
2023/07/14 02:26:59;;;;;;;;;;;;;;;20.48;41.66;101794.75;5056933;28;20007;-85
2023/07/14 02:29:25;;;;;;;;;;;;;;;20.45;41.57;101789.03;5058715;28;20035;-85
2023/07/14 02:31:59;;;;;;;;;;;;;;;20.42;41.62;101795.06;5061955;28;20296;-85
2023/07/14 02:34:28;;;;;;;;;;;;;;;20.37;41.58;101795.91;5058597;28;19967;-86
2023/07/14 02:36:53;;;;;;;;;;;;;;;20.36;41.67;101799.72;5052904;28;19925;-85
2023/07/14 02:39:18;;;;;;;;;;;;;;;20.33;41.92;101802.22;5055203;28;20428;-85
2023/07/14 02:41:44;;;;;;;;;;;;;;;20.32;41.86;101800.59;5057257;28;19917;-85
2023/07/14 02:44:12;;;;;;;;;;;;;;;20.27;41.95;101801.44;5057656;28;19920;-85
2023/07/14 02:46:37;;;;;;;;;;;;;;;20.25;41.97;101806.38;5054327;28;19991;-86
2023/07/14 02:49:03;;;;;;;;;;;;;;;20.21;41.92;101799.88;5055318;28;19987;-84
2023/07/14 02:51:28;;;;;;;;;;;;;;;20.18;41.69;101806.72;5057779;28;19971;-86
2023/07/14 02:53:53;;;;;;;;;;;;;;;20.16;41.59;101814.34;5060168;28;19950;-85
2023/07/14 02:56:19;;;;;;;;;;;;;;;20.13;41.88;101825.00;5052703;28;19916;-85
2023/07/14 02:58:48;;;;;;;;;;;;;;;20.11;41.93;101819.84;5053320;28;19921;-86
2023/07/14 03:01:14;;;;;;;;;;;;;;;20.12;41.95;101816.03;5053593;28;20324;-85
2023/07/14 03:03:39;;;;;;;;;;;;;;;20.09;41.94;101819.28;5056060;28;19923;-85
2023/07/14 03:06:05;;;;;;;;;;;;;;;20.07;41.83;101813.34;5052097;28;19921;-86
2023/07/14 03:08:30;;;;;;;;;;;;;;;20.03;41.86;101812.28;5053282;28;19974;-85
2023/07/14 03:10:57;;;;;;;;;;;;;;;19.98;41.86;101808.81;5051379;28;20202;-84
2023/07/14 03:13:22;;;;;;;;;;;;;;;19.94;42.11;101805.03;5054569;28;19925;-85
2023/07/14 03:15:47;;;;;;;;;;;;;;;19.94;41.86;101814.00;5059353;28;19923;-85
2023/07/14 03:18:14;;;;;;;;;;;;;;;19.96;42.22;101811.00;5051119;28;20443;-85
2023/07/14 03:20:40;;;;;;;;;;;;;;;19.98;42.41;101811.53;5055658;28;19921;-85
2023/07/14 03:23:05;;;;;;;;;;;;;;;19.99;42.33;101816.69;5052397;28;20316;-85
2023/07/14 03:25:30;;;;;;;;;;;;;;;19.99;42.36;101815.88;5054595;28;19928;-85
2023/07/14 03:27:55;;;;;;;;;;;;;;;19.98;42.36;101820.50;5053946;28;19916;-85
2023/07/14 03:30:21;;;;;;;;;;;;;;;19.97;42.55;101820.78;5054955;28;19928;-85
2023/07/14 03:32:46;;;;;;;;;;;;;;;19.96;42.44;101817.25;5055399;28;20400;-86
2023/07/14 03:35:11;;;;;;;;;;;;;;;19.97;42.35;101829.75;5055671;28;20204;-85
2023/07/14 03:37:37;;;;;;;;;;;;;;;19.97;42.31;101832.47;5052419;28;19943;-84
2023/07/14 03:40:04;;;;;;;;;;;;;;;19.97;42.31;101829.75;5054185;28;19939;-85
2023/07/14 03:42:30;;;;;;;;;;;;;;;19.98;42.48;101836.00;5061333;28;19920;-85
2023/07/14 03:44:55;;;;;;;;;;;;;;;19.98;42.74;101836.81;5057534;28;19923;-84
2023/07/14 03:47:20;;;;;;;;;;;;;;;19.99;42.84;101833.00;5059870;28;20002;-86
2023/07/14 03:49:46;;;;;;;;;;;;;;;20.03;42.68;101836.78;5067586;28;19994;-86
2023/07/14 03:52:13;;;;;;;;;;;;;;;20.09;42.64;101835.63;5057870;28;19932;-86
2023/07/14 03:54:38;;;;;;;;;;;;;;;20.17;42.71;101840.47;5057214;28;19921;-85
2023/07/14 03:57:05;;;;;;;;;;;;;;;20.28;42.51;101837.63;5056835;28;19965;-86
2023/07/14 03:59:30;;;;;;;;;;;;;;;20.37;42.89;101834.00;5059989;28;19926;-86
2023/07/14 04:01:56;;;;;;;;;;;;;;;20.45;42.67;101836.13;5053228;28;19916;-85
2023/07/14 04:04:22;;;;;;;;;;;;;;;20.52;42.82;101831.16;5055811;28;19927;-85
2023/07/14 04:06:47;;;;;;;;;;;;;;;20.60;42.77;101842.53;5060208;28;19920;-85
2023/07/14 04:09:13;;;;;;;;;;;;;;;20.67;42.78;101832.91;5056909;28;20220;-86
2023/07/14 04:11:38;;;;;;;;;;;;;;;20.75;43.02;101829.56;5053588;28;19928;-86
2023/07/14 04:14:04;;;;;;;;;;;;;;;20.84;42.66;101834.38;5062734;28;20208;-86
2023/07/14 04:16:30;;;;;;;;;;;;;;;20.95;42.93;101833.94;5056291;28;19920;-86
2023/07/14 04:18:55;;;;;;;;;;;;;;;21.03;42.89;101830.59;5057416;28;20082;-86
2023/07/14 04:21:24;;;;;;;;;;;;;;;21.12;42.85;101839.72;5052333;28;19920;-86
2023/07/14 04:23:53;;;;;;;;;;;;;;;21.19;42.88;101839.38;5055171;28;19917;-86
2023/07/14 04:26:18;;;;;;;;;;;;;;;21.26;43.00;101839.84;5056906;28;19920;-86
2023/07/14 04:28:44;;;;;;;;;;;;;;;21.34;42.93;101841.91;5056674;28;19921;-86
2023/07/14 04:31:09;;;;;;;;;;;;;;;21.43;42.74;101839.34;5059108;28;20447;-86
2023/07/14 04:33:34;;;;;;;;;;;;;;;21.50;42.75;101837.03;5051808;28;19921;-86
2023/07/14 04:36:00;;;;;;;;;;;;;;;21.55;42.96;101838.91;5053754;28;20178;-85
2023/07/14 04:38:25;;;;;;;;;;;;;;;21.58;43.15;101839.13;5057756;28;19923;-86
2023/07/14 04:40:50;;;;;;;;;;;;;;;21.64;43.01;101845.31;5055394;28;19920;-86
2023/07/14 04:43:17;;;;;;;;;;;;;;;21.70;42.92;101849.56;5053283;28;20019;-85
2023/07/14 04:45:44;;;;;;;;;;;;;;;21.77;nan;101852.75;5055020;28;19920;-85
2023/07/14 04:48:12;;;;;;;;;;;;;;;21.83;nan;101854.28;5055138;28;20456;-85
2023/07/14 04:50:37;;;;;;;;;;;;;;;21.92;nan;101851.69;5054067;28;20192;-86
2023/07/14 04:53:06;;;;;;;;;;;;;;;22.03;nan;101842.22;5058791;28;19985;-85
2023/07/14 04:55:34;;;;;;;;;;;;;;;22.09;nan;101841.06;5051721;28;19916;-85
2023/07/14 04:58:00;;;;;;;;;;;;;;;22.14;nan;101840.16;5054803;28;19924;-85
2023/07/14 05:00:25;;;;;;;;;;;;;;;22.22;nan;101842.19;5051953;28;19924;-85
2023/07/14 05:02:51;;;;;;;;;;;;;;;22.28;nan;101850.00;5057294;28;19920;-85
2023/07/14 05:05:20;;;;;;;;;;;;;;;22.35;nan;101844.16;5052440;28;19924;-85
2023/07/14 05:07:48;;;;;;;;;;;;;;;22.44;nan;101852.44;5057732;28;19923;-85
2023/07/14 05:10:13;;;;;;;;;;;;;;;22.54;nan;101855.81;5067992;28;20308;-86
2023/07/14 05:12:38;;;;;;;;;;;;;;;22.66;nan;101854.50;5055342;28;19920;-84
2023/07/14 05:15:05;;;;;;;;;;;;;;;22.77;nan;101851.25;5051448;28;20054;-85
2023/07/14 05:17:31;;;;;;;;;;;;;;;22.89;nan;101853.53;5052698;28;19917;-85
2023/07/14 05:19:56;;;;;;;;;;;;;;;22.99;nan;101853.34;5052446;28;19925;-85
2023/07/14 05:22:22;;;;;;;;;;;;;;;23.12;nan;101859.88;5055374;28;20444;-85
2023/07/14 05:24:47;;;;;;;;;;;;;;;23.18;nan;101862.22;5054818;28;19920;-85
2023/07/14 05:27:12;;;;;;;;;;;;;;;23.27;nan;101858.75;5050153;28;19964;-85
2023/07/14 05:29:38;;;;;;;;;;;;;;;23.37;nan;101858.53;5054550;28;20034;-85
2023/07/14 05:32:03;;;;;;;;;;;;;;;23.48;nan;101866.19;5052756;28;20031;-83
2023/07/14 05:34:29;;;;;;;;;;;;;;;23.59;nan;101866.00;5059084;28;19931;-83
2023/07/14 05:36:54;;;;;;;;;;;;;;;23.69;nan;101871.22;5058234;28;20407;-83
2023/07/14 05:39:20;;;;;;;;;;;;;;;23.75;nan;101876.28;5060063;28;19924;-83
2023/07/14 05:41:45;;;;;;;;;;;;;;;23.84;nan;101878.25;5059171;28;20007;-82
2023/07/14 05:44:10;;;;;;;;;;;;;;;23.94;nan;101878.03;5061324;28;19920;-83
2023/07/14 05:46:35;;;;;;;;;;;;;;;24.05;nan;101873.91;5060498;28;20287;-83
2023/07/14 05:49:01;;;;;;;;;;;;;;;24.16;nan;101869.00;5060462;28;19920;-83
2023/07/14 05:51:26;;;;;;;;;;;;;;;24.26;nan;101872.31;5059871;28;19924;-83
2023/07/14 05:53:51;;;;;;;;;;;;;;;24.37;nan;101867.38;5058734;28;20409;-83
2023/07/14 05:56:17;;;;;;;;;;;;;;;24.50;nan;101869.22;5058141;28;20007;-83
2023/07/14 05:58:42;;;;;;;;;;;;;;;24.63;nan;101873.81;5057843;28;19936;-83
2023/07/14 06:01:07;;;;;;;;;;;;;;;24.78;nan;101869.84;5049916;28;20074;-82
2023/07/14 06:03:33;;;;;;;;;;;;;;;24.87;nan;101873.41;5054792;28;20009;-83
2023/07/14 06:05:58;;;;;;;;;;;;;;;24.91;nan;101863.41;5053010;28;19923;-82
2023/07/14 06:08:23;;;;;;;;;;;;;;;24.94;nan;101873.75;5056526;28;20293;-84
2023/07/14 06:10:49;;;;;;;;;;;;;;;25.03;nan;101864.78;5053814;28;19986;-83
2023/07/14 06:13:14;;;;;;;;;;;;;;;25.10;nan;101865.09;5058078;28;19924;-82
2023/07/14 06:15:45;;;;;;;;;;;;;;;25.22;nan;101874.34;5053126;28;20190;-82
2023/07/14 06:18:10;;;;;;;;;;;;;;;25.37;nan;101873.06;5050752;28;19921;-83
2023/07/14 06:20:35;;;;;;;;;;;;;;;25.54;nan;101869.53;5054230;28;20003;-83
2023/07/14 06:23:02;;;;;;;;;;;;;;;25.72;nan;101876.69;5051343;28;19925;-83
2023/07/14 06:25:27;;;;;;;;;;;;;;;25.85;nan;101877.63;5052430;28;20011;-83
2023/07/14 06:27:52;;;;;;;;;;;;;;;25.98;nan;101876.66;5056533;28;19917;-83
2023/07/14 06:30:18;;;;;;;;;;;;;;;26.06;nan;101877.78;5058443;28;20351;-83
2023/07/14 06:32:43;;;;;;;;;;;;;;;26.10;nan;101879.53;5055680;28;20452;-83
2023/07/14 06:35:10;;;;;;;;;;;;;;;26.16;nan;101875.47;5053091;28;20003;-83
2023/07/14 06:37:35;;;;;;;;;;;;;;;26.26;nan;101877.09;5059874;28;20416;-83
2023/07/14 06:40:00;;;;;;;;;;;;;;;26.31;nan;101876.91;5055555;28;20073;-83
2023/07/14 06:42:26;;;;;;;;;;;;;;;26.41;nan;101881.28;5059494;28;19961;-84
2023/07/14 06:44:51;;;;;;;;;;;;;;;26.50;nan;101884.81;5056844;28;20007;-83
2023/07/14 06:47:17;;;;;;;;;;;;;;;26.54;nan;101879.44;5058871;28;19927;-83
2023/07/14 06:49:42;;;;;;;;;;;;;;;26.59;nan;101871.84;5058754;28;19920;-85
2023/07/14 06:52:08;;;;;;;;;;;;;;;26.59;nan;101877.34;5059763;28;19921;-84
2023/07/14 06:54:33;;;;;;;;;;;;;;;26.68;nan;101875.34;5057653;28;19921;-84
2023/07/14 06:56:58;;;;;;;;;;;;;;;26.77;nan;101872.59;5057982;28;20295;-83
2023/07/14 06:59:25;;;;;;;;;;;;;;;26.92;nan;101877.50;5054894;28;19924;-83
2023/07/14 07:01:50;;;;;;;;;;;;;;;27.04;nan;101882.31;5056535;28;20288;-83
2023/07/14 07:04:15;;;;;;;;;;;;;;;27.13;nan;101876.78;5057922;28;19946;-83
2023/07/14 07:06:40;;;;;;;;;;;;;;;27.19;nan;101873.50;5059762;28;19916;-84
2023/07/14 07:09:06;;;;;;;;;;;;;;;27.34;nan;101883.13;5059905;28;19921;-83
2023/07/14 07:11:32;;;;;;;;;;;;;;;27.49;nan;101873.47;5064409;28;20379;-84
2023/07/14 07:13:57;;;;;;;;;;;;;;;27.57;nan;101872.56;5061761;28;20577;-82
2023/07/14 07:16:22;;;;;;;;;;;;;;;27.68;nan;101871.06;5058743;28;20015;-84
2023/07/14 07:18:48;;;;;;;;;;;;;;;27.82;nan;101879.03;5061188;28;20257;-84
2023/07/14 07:21:13;;;;;;;;;;;;;;;27.93;nan;101880.22;5060678;28;19923;-84
2023/07/14 07:23:39;;;;;;;;;;;;;;;28.08;nan;101876.03;5056980;28;20392;-84
2023/07/14 07:26:04;;;;;;;;;;;;;;;28.19;nan;101877.22;5062263;28;20293;-83
2023/07/14 07:28:30;;;;;;;;;;;;;;;28.28;nan;101880.72;5062503;28;20261;-84
2023/07/14 07:30:55;;;;;;;;;;;;;;;28.37;nan;101878.69;5059697;28;19931;-83
2023/07/14 07:33:20;;;;;;;;;;;;;;;28.53;nan;101878.78;5075824;28;20087;-84
2023/07/14 07:35:46;;;;;;;;;;;;;;;28.66;nan;101874.09;5059573;28;19959;-83
2023/07/14 07:38:11;;;;;;;;;;;;;;;28.79;nan;101865.50;5056135;28;20343;-84
2023/07/14 07:40:40;;;;;;;;;;;;;;;28.88;nan;101874.47;5060155;28;19916;-83
2023/07/14 07:43:06;;;;;;;;;;;;;;;28.89;nan;101861.50;5064713;28;19985;-85
2023/07/14 07:45:31;;;;;;;;;;;;;;;28.89;nan;101865.06;5067114;28;20352;-84
2023/07/14 07:47:57;;;;;;;;;;;;;;;28.92;nan;101869.09;5062161;28;19916;-83
2023/07/14 07:50:22;;;;;;;;;;;;;;;29.05;nan;101865.16;5061892;28;19993;-83
2023/07/14 07:52:48;;;;;;;;;;;;;;;29.22;nan;101868.81;5061287;28;20315;-83
2023/07/14 07:55:13;;;;;;;;;;;;;;;29.38;nan;101872.47;5061037;28;19924;-84
2023/07/14 07:57:40;;;;;;;;;;;;;;;29.40;nan;101865.44;5060498;28;19943;-84
2023/07/14 08:00:06;;;;;;;;;;;;;;;29.44;nan;101860.00;5060163;28;20061;-83
2023/07/14 08:02:31;;;;;;;;;;;;;;;29.44;nan;101857.25;5062234;28;19924;-83
2023/07/14 08:04:57;;;;;;;;;;;;;;;29.44;nan;101857.25;5060867;28;20112;-83
2023/07/14 08:07:22;;;;;;;;;;;;;;;29.45;nan;101861.66;5060708;28;19970;-84
2023/07/14 08:09:48;;;;;;;;;;;;;;;29.48;nan;101849.94;5056394;28;20146;-84
2023/07/14 08:12:14;;;;;;;;;;;;;;;29.54;nan;101858.75;5057304;28;19926;-83
2023/07/14 08:14:50;;;;;;;;;;;;;;;29.62;nan;101852.28;5065030;28;19920;-84
2023/07/14 08:17:15;;;;;;;;;;;;;;;29.75;nan;101862.94;5065674;28;19932;-85
2023/07/14 08:19:40;;;;;;;;;;;;;;;29.73;nan;101853.38;5069638;28;20045;-84
2023/07/14 08:22:06;;;;;;;;;;;;;;;29.80;nan;101850.81;5062068;28;19920;-83
2023/07/14 08:24:31;;;;;;;;;;;;;;;29.89;nan;101850.69;5061136;28;19921;-85
2023/07/14 08:26:56;;;;;;;;;;;;;;;30.01;nan;101853.38;5056933;28;19920;-84
2023/07/14 08:29:22;;;;;;;;;;;;;;;30.12;nan;101848.16;5055747;28;19924;-83
2023/07/14 08:31:48;;;;;;;;;;;;;;;30.29;nan;101851.38;5058776;28;19924;-84
2023/07/14 08:34:13;;;;;;;;;;;;;;;30.49;nan;101849.50;5059930;28;19932;-84
2023/07/14 08:36:38;;;;;;;;;;;;;;;30.63;nan;101852.66;5052879;28;19924;-85
2023/07/14 08:39:04;;;;;;;;;;;;;;;30.75;nan;101850.97;5057225;28;19947;-84
2023/07/14 08:41:30;;;;;;;;;;;;;;;30.80;nan;101836.84;5050291;28;19927;-84
2023/07/14 08:44:17;;;;;;;;;;;;;;;30.93;nan;101838.34;5054477;28;19956;-86
2023/07/14 08:46:46;;;;;;;;;;;;;;;30.93;nan;101838.34;5052562;28;19927;-84
2023/07/14 08:49:22;;;;;;;;;;;;;;;30.97;nan;101842.00;5054957;28;20023;-84
2023/07/14 08:51:51;;;;;;;;;;;;;;;31.05;nan;101845.72;5053153;28;20150;-84
2023/07/14 08:54:19;;;;;;;;;;;;;;;31.06;nan;101845.38;5054818;28;19927;-82
2023/07/14 08:56:45;;;;;;;;;;;;;;;31.16;nan;101841.22;5052578;28;19916;-84
2023/07/14 08:59:13;;;;;;;;;;;;;;;31.24;nan;101834.72;5052659;28;20463;-82
2023/07/14 09:01:47;;;;;;;;;;;;;;;31.38;nan;101835.00;5050399;28;20415;-85
2023/07/14 09:04:20;;;;;;;;;;;;;;;31.48;nan;101839.16;5051602;28;19927;-84
2023/07/14 09:06:47;;;;;;;;;;;;;;;31.50;nan;101834.88;5052699;28;20377;-86
2023/07/14 09:09:29;;;;;;;;;;;;;;;31.51;nan;101830.94;5052844;28;20471;-85
2023/07/14 09:12:15;;;;;;;;;;;;;;;31.55;nan;101828.22;5057899;28;20592;-84
2023/07/14 09:14:46;;;;;;;;;;;;;;;31.69;nan;101830.47;5038443;28;20005;-86
2023/07/14 09:17:11;;;;;;;;;;;;;;;31.80;nan;101823.22;5051518;28;19921;-84
2023/07/14 09:19:56;;;;;;;;;;;;;;;31.93;nan;101829.38;5055055;28;20242;-83
2023/07/14 09:22:36;;;;;;;;;;;;;;;32.08;nan;101818.19;5052330;28;19924;-84
2023/07/14 09:25:08;;;;;;;;;;;;;;;32.15;nan;101823.84;5053384;28;19924;-85
2023/07/14 09:27:33;;;;;;;;;;;;;;;32.08;nan;101822.91;5050442;28;20011;-84
2023/07/14 09:29:59;;;;;;;;;;;;;;;32.00;nan;101819.22;5050710;28;20011;-84
2023/07/14 09:32:25;;;;;;;;;;;;;;;32.07;nan;101819.34;5056430;28;19917;-87
2023/07/14 09:34:58;;;;;;;;;;;;;;;32.20;nan;101816.41;5051338;28;19939;-85
2023/07/14 09:37:35;;;;;;;;;;;;;;;32.42;nan;101813.63;5053039;28;19923;-85
2023/07/14 09:40:39;;;;;;;;;;;;;;;32.55;nan;101813.44;5052396;28;19920;-85
2023/07/14 09:43:05;;;;;;;;;;;;;;;32.59;nan;101820.63;5017592;28;19972;-83
2023/07/14 09:45:32;;;;;;;;;;;;;;;32.59;nan;101806.75;5015462;28;19952;-86
2023/07/14 09:48:16;;;;;;;;;;;;;;;32.56;nan;101807.50;5034196;28;19926;-85
2023/07/14 09:51:01;;;;;;;;;;;;;;;32.70;nan;101810.50;5053634;28;19931;-86
2023/07/14 09:53:27;;;;;;;;;;;;;;;32.85;nan;101799.63;5056288;28;19927;-85
2023/07/14 09:55:56;;;;;;;;;;;;;;;32.95;nan;101796.22;5056264;28;19928;-85
2023/07/14 09:58:23;;;;;;;;;;;;;;;32.99;nan;101797.06;5055373;28;19960;-85
2023/07/14 10:00:49;;;;;;;;;;;;;;;33.00;nan;101795.88;5048920;28;19925;-84
2023/07/14 10:03:16;;;;;;;;;;;;;;;33.00;nan;101793.91;5061336;28;19967;-85
2023/07/14 10:05:53;;;;;;;;;;;;;;;33.06;nan;101788.84;5061654;28;19926;-88
2023/07/14 10:08:29;;;;;;;;;;;;;;;33.08;nan;101794.00;5062281;28;19921;-85
2023/07/14 10:10:56;;;;;;;;;;;;;;;33.14;nan;101790.50;5056932;28;19936;-85
2023/07/14 10:13:26;;;;;;;;;;;;;;;33.22;nan;101791.41;5062993;28;20003;-85
2023/07/14 10:15:57;;;;;;;;;;;;;;;33.29;nan;101792.28;5059028;28;19920;-83
2023/07/14 10:18:23;;;;;;;;;;;;;;;33.46;nan;101781.81;5058248;28;20403;-86
2023/07/14 10:20:57;;;;;;;;;;;;;;;33.54;nan;101775.94;5060459;28;20023;-85
2023/07/14 10:23:24;;;;;;;;;;;;;;;33.56;nan;101795.00;5057881;28;19983;-86
2023/07/14 10:25:51;;;;;;;;;;;;;;;33.38;nan;101786.47;5057400;28;19920;-87
2023/07/14 10:28:22;;;;;;;;;;;;;;;33.32;nan;101769.34;5061352;28;19928;-86
2023/07/14 10:30:50;;;;;;;;;;;;;;;33.40;nan;101775.00;5059153;28;19939;-87
2023/07/14 10:33:38;;;;;;;;;;;;;;;33.52;nan;101771.94;5058581;28;20564;-85
2023/07/14 10:36:08;;;;;;;;;;;;;;;33.65;nan;101764.94;5049860;28;20380;-85
2023/07/14 10:38:36;;;;;;;;;;;;;;;33.67;nan;101768.13;5055405;28;19952;-84
2023/07/14 10:41:02;;;;;;;;;;;;;;;33.65;nan;101764.94;5066819;28;19966;-86
2023/07/14 10:43:36;;;;;;;;;;;;;;;33.71;nan;101768.16;5060656;28;19916;-89
2023/07/14 10:46:06;;;;;;;;;;;;;;;33.68;nan;101760.59;5063368;28;19931;-85
2023/07/14 10:48:38;;;;;;;;;;;;;;;33.68;nan;101763.38;5057354;28;20685;-85
2023/07/14 10:51:11;;;;;;;;;;;;;;;33.66;nan;101766.53;5055148;28;19924;-83
2023/07/14 10:53:49;;;;;;;;;;;;;;;33.50;nan;101768.75;5060516;28;19974;-84
2023/07/14 10:56:35;;;;;;;;;;;;;;;33.51;nan;101762.00;5057813;28;19929;-82
2023/07/14 10:59:13;;;;;;;;;;;;;;;33.72;nan;101753.88;5073421;28;20304;-83
2023/07/14 11:01:40;;;;;;;;;;;;;;;34.00;nan;101756.16;5060875;28;19920;-87
2023/07/14 11:04:24;;;;;;;;;;;;;;;34.24;nan;101751.97;5058211;28;19920;-85
2023/07/14 11:06:52;;;;;;;;;;;;;;;34.25;nan;101759.13;5059559;28;19961;-86
2023/07/14 11:09:17;;;;;;;;;;;;;;;34.18;nan;101754.31;5060043;28;19927;-84
2023/07/14 11:11:45;;;;;;;;;;;;;;;34.24;nan;101744.44;5056865;28;19924;-83
2023/07/14 11:14:17;;;;;;;;;;;;;;;34.33;nan;101743.31;5056119;28;20304;-83
2023/07/14 11:16:51;;;;;;;;;;;;;;;34.39;nan;101742.56;5057637;28;20358;-84
2023/07/14 11:19:25;;;;;;;;;;;;;;;34.29;nan;101742.47;5055948;28;20697;-86
2023/07/14 11:21:57;;;;;;;;;;;;;;;34.26;nan;101749.59;5059680;28;19927;-83
2023/07/14 11:24:58;;;;;;;;;;;;;;;34.13;nan;101742.75;5054079;28;20385;-85
2023/07/14 11:27:30;;;;;;;;;;;;;;;34.14;nan;101744.38;5001551;28;19921;-83
2023/07/14 11:30:00;;;;;;;;;;;;;;;34.22;nan;101738.44;5055246;28;19921;-84
2023/07/14 11:32:44;;;;;;;;;;;;;;;34.24;nan;101735.28;5064430;28;19920;-84
2023/07/14 11:35:16;;;;;;;;;;;;;;;34.19;nan;101730.09;5056590;28;19926;-84
2023/07/14 11:38:13;;;;;;;;;;;;;;;34.31;nan;101735.34;5059304;28;19927;-85
2023/07/14 11:40:41;;;;;;;;;;;;;;;34.53;nan;101730.75;5023121;28;19923;-82
2023/07/14 11:43:10;;;;;;;;;;;;;;;34.64;nan;101726.00;5058042;28;19947;-84
2023/07/14 11:45:36;;;;;;;;;;;;;;;34.77;nan;101724.50;5058446;28;19931;-84
2023/07/14 11:48:01;;;;;;;;;;;;;;;34.93;nan;101727.00;5057335;28;19925;-84
2023/07/14 11:50:32;;;;;;;;;;;;;;;35.05;nan;101728.63;5061412;28;19927;-83
2023/07/14 11:52:59;;;;;;;;;;;;;;;35.03;nan;101731.03;5058869;28;19917;-83
2023/07/14 11:55:27;;;;;;;;;;;;;;;34.95;nan;101732.97;5054782;28;19925;-83
2023/07/14 11:58:16;;;;;;;;;;;;;;;34.99;nan;101719.84;5057317;28;19920;-83
2023/07/14 12:00:44;;;;;;;;;;;;;;;35.08;nan;101720.28;5052718;28;19917;-83
2023/07/14 12:03:29;;;;;;;;;;;;;;;35.16;nan;101735.03;5053474;28;19927;-83
2023/07/14 12:06:14;;;;;;;;;;;;;;;35.14;nan;101727.06;5056098;28;19931;-83
2023/07/14 12:08:41;;;;;;;;;;;;;;;35.27;nan;101712.78;5057591;28;19920;-83
2023/07/14 12:11:22;;;;;;;;;;;;;;;35.49;nan;101710.84;5058988;28;20039;-83
2023/07/14 12:13:50;;;;;;;;;;;;;;;35.76;nan;101712.09;5057567;28;20019;-85
2023/07/14 12:16:24;;;;;;;;;;;;;;;36.06;nan;101711.69;5054300;28;19924;-84
2023/07/14 12:18:56;;;;;;;;;;;;;;;36.28;nan;101709.69;5057963;28;20468;-84
2023/07/14 12:21:32;;;;;;;;;;;;;;;36.33;nan;101711.28;5055229;28;19920;-84
2023/07/14 12:24:00;;;;;;;;;;;;;;;36.28;nan;101710.47;5053084;28;20014;-87
2023/07/14 12:26:33;;;;;;;;;;;;;;;36.15;nan;101705.72;5058736;28;20640;-86
2023/07/14 12:29:09;;;;;;;;;;;;;;;35.76;nan;101709.31;5054454;28;19916;-84
2023/07/14 12:31:36;;;;;;;;;;;;;;;35.47;nan;101700.09;5055820;28;19927;-83
2023/07/14 12:34:03;;;;;;;;;;;;;;;35.56;nan;101697.75;5054036;28;19924;-84
2023/07/14 12:36:29;;;;;;;;;;;;;;;35.90;nan;101698.16;5056704;28;20592;-85
2023/07/14 12:38:55;;;;;;;;;;;;;;;36.30;nan;101694.13;5054846;28;19931;-85
2023/07/14 12:41:23;;;;;;;;;;;;;;;36.60;nan;101692.88;5060418;28;19920;-85
2023/07/14 12:43:50;;;;;;;;;;;;;;;36.77;nan;101685.63;5055071;28;20093;-83
2023/07/14 12:46:35;;;;;;;;;;;;;;;36.81;nan;101681.66;5057270;28;19924;-83
2023/07/14 12:49:02;;;;;;;;;;;;;;;36.92;nan;101676.78;5054277;28;20495;-84
2023/07/14 12:51:29;;;;;;;;;;;;;;;37.11;nan;101674.69;5053990;28;19924;-85
2023/07/14 12:54:03;;;;;;;;;;;;;;;37.21;nan;101668.25;5057714;28;19947;-84
2023/07/14 12:56:29;;;;;;;;;;;;;;;37.35;nan;101664.59;5057801;28;19963;-83